sensor_id;sensor_type;location;lat;lon;timestamp;P1;P2;P0
69349;PMS5003;64554;43.452;4.934;2023-04-03T00:01:10;0.00;0.00;0.00
69349;PMS5003;64554;43.452;4.934;2023-04-03T00:03:37;0.00;0.00;0.00
69349;PMS5003;64554;43.452;4.934;2023-04-03T00:06:04;0.75;0.75;0.00
69349;PMS5003;64554;43.452;4.934;2023-04-03T00:08:32;1.00;1.00;1.00
69349;PMS5003;64554;43.452;4.934;2023-04-03T00:10:59;1.00;1.00;0.00
69349;PMS5003;64554;43.452;4.934;2023-04-03T00:13:26;0.20;0.20;0.00
69349;PMS5003;64554;43.452;4.934;2023-04-03T00:15:52;0.25;0.25;0.00
69349;PMS5003;64554;43.452;4.934;2023-04-03T00:18:19;2.20;0.60;0.00
69349;PMS5003;64554;43.452;4.934;2023-04-03T00:20:46;1.00;1.00;0.00
69349;PMS5003;64554;43.452;4.934;2023-04-03T00:23:12;1.00;1.00;0.00
69349;PMS5003;64554;43.452;4.934;2023-04-03T00:25:39;0.00;0.00;0.00
69349;PMS5003;64554;43.452;4.934;2023-04-03T00:28:05;1.00;1.00;0.00
69349;PMS5003;64554;43.452;4.934;2023-04-03T00:30:32;1.00;1.00;0.00
69349;PMS5003;64554;43.452;4.934;2023-04-03T00:32:59;0.00;0.00;0.00
69349;PMS5003;64554;43.452;4.934;2023-04-03T00:35:27;1.00;1.00;0.00
69349;PMS5003;64554;43.452;4.934;2023-04-03T00:37:54;1.00;1.00;0.00
69349;PMS5003;64554;43.452;4.934;2023-04-03T00:40:22;1.00;1.00;0.50
69349;PMS5003;64554;43.452;4.934;2023-04-03T00:42:51;0.00;0.00;0.00
69349;PMS5003;64554;43.452;4.934;2023-04-03T00:47:44;0.00;0.00;0.00
69349;PMS5003;64554;43.452;4.934;2023-04-03T00:50:11;0.00;0.00;0.00
69349;PMS5003;64554;43.452;4.934;2023-04-03T00:52:38;0.50;0.50;0.00
69349;PMS5003;64554;43.452;4.934;2023-04-03T00:55:05;1.00;1.00;0.00
69349;PMS5003;64554;43.452;4.934;2023-04-03T00:57:34;0.50;0.50;0.00
69349;PMS5003;64554;43.452;4.934;2023-04-03T01:00:04;0.50;0.50;0.00
69349;PMS5003;64554;43.452;4.934;2023-04-03T01:02:32;1.00;1.00;0.40
69349;PMS5003;64554;43.452;4.934;2023-04-03T01:04:59;1.00;1.00;0.00
69349;PMS5003;64554;43.452;4.934;2023-04-03T01:07:28;0.75;0.75;0.00
69349;PMS5003;64554;43.452;4.934;2023-04-03T01:09:59;0.00;0.00;0.00
69349;PMS5003;64554;43.452;4.934;2023-04-03T01:12:27;0.00;0.00;0.00
69349;PMS5003;64554;43.452;4.934;2023-04-03T01:14:55;1.00;1.00;0.00
69349;PMS5003;64554;43.452;4.934;2023-04-03T01:17:38;2.00;2.00;1.00
69349;PMS5003;64554;43.452;4.934;2023-04-03T01:22:40;1.00;1.00;0.20
69349;PMS5003;64554;43.452;4.934;2023-04-03T01:25:10;1.00;1.00;0.00
69349;PMS5003;64554;43.452;4.934;2023-04-03T01:27:36;0.50;0.50;0.00
69349;PMS5003;64554;43.452;4.934;2023-04-03T01:30:05;1.00;1.00;0.00
69349;PMS5003;64554;43.452;4.934;2023-04-03T01:32:33;2.60;1.60;0.00
69349;PMS5003;64554;43.452;4.934;2023-04-03T01:34:59;1.80;1.80;0.00
69349;PMS5003;64554;43.452;4.934;2023-04-03T01:37:26;1.20;1.20;1.00
69349;PMS5003;64554;43.452;4.934;2023-04-03T01:39:52;0.80;0.80;0.00
69349;PMS5003;64554;43.452;4.934;2023-04-03T01:42:19;0.00;0.00;0.00
69349;PMS5003;64554;43.452;4.934;2023-04-03T01:44:45;1.40;1.40;1.00
69349;PMS5003;64554;43.452;4.934;2023-04-03T01:47:12;2.00;2.00;1.00
69349;PMS5003;64554;43.452;4.934;2023-04-03T01:49:38;2.00;2.00;0.50
69349;PMS5003;64554;43.452;4.934;2023-04-03T01:52:05;2.00;2.00;1.00
69349;PMS5003;64554;43.452;4.934;2023-04-03T01:54:32;1.00;1.00;1.00
69349;PMS5003;64554;43.452;4.934;2023-04-03T01:56:59;1.60;1.60;1.00
69349;PMS5003;64554;43.452;4.934;2023-04-03T01:59:25;2.00;2.00;1.00
69349;PMS5003;64554;43.452;4.934;2023-04-03T02:01:52;2.00;2.00;1.00
69349;PMS5003;64554;43.452;4.934;2023-04-03T02:04:18;1.00;1.00;0.40
69349;PMS5003;64554;43.452;4.934;2023-04-03T02:06:45;1.00;1.00;0.00
69349;PMS5003;64554;43.452;4.934;2023-04-03T02:09:11;1.00;1.00;1.00
69349;PMS5003;64554;43.452;4.934;2023-04-03T02:11:38;1.25;1.25;1.00
69349;PMS5003;64554;43.452;4.934;2023-04-03T02:14:05;1.00;0.00;0.00
69349;PMS5003;64554;43.452;4.934;2023-04-03T02:16:32;0.20;0.20;0.20
69349;PMS5003;64554;43.452;4.934;2023-04-03T02:18:59;1.00;1.00;0.00
69349;PMS5003;64554;43.452;4.934;2023-04-03T02:21:26;2.00;2.00;0.00
69349;PMS5003;64554;43.452;4.934;2023-04-03T02:23:52;1.20;1.20;0.40
69349;PMS5003;64554;43.452;4.934;2023-04-03T02:26:19;1.00;1.00;1.00
69349;PMS5003;64554;43.452;4.934;2023-04-03T02:28:46;1.00;1.00;0.00
69349;PMS5003;64554;43.452;4.934;2023-04-03T02:31:13;1.00;1.00;0.00
69349;PMS5003;64554;43.452;4.934;2023-04-03T02:33:39;0.60;0.60;0.60
69349;PMS5003;64554;43.452;4.934;2023-04-03T02:36:07;1.00;1.00;0.00
69349;PMS5003;64554;43.452;4.934;2023-04-03T02:38:34;2.00;2.00;1.00
69349;PMS5003;64554;43.452;4.934;2023-04-03T02:41:11;1.00;1.00;0.60
69349;PMS5003;64554;43.452;4.934;2023-04-03T02:43:38;1.80;1.00;0.00
69349;PMS5003;64554;43.452;4.934;2023-04-03T02:46:05;1.25;1.25;1.00
69349;PMS5003;64554;43.452;4.934;2023-04-03T02:48:31;2.00;1.00;0.00
69349;PMS5003;64554;43.452;4.934;2023-04-03T02:50:58;3.00;3.00;1.00
69349;PMS5003;64554;43.452;4.934;2023-04-03T02:53:24;0.00;0.00;0.00
69349;PMS5003;64554;43.452;4.934;2023-04-03T02:55:51;1.00;1.00;1.00
69349;PMS5003;64554;43.452;4.934;2023-04-03T02:58:18;1.40;1.40;0.80
69349;PMS5003;64554;43.452;4.934;2023-04-03T03:00:44;2.00;2.00;1.00
69349;PMS5003;64554;43.452;4.934;2023-04-03T03:03:11;1.00;1.00;0.00
69349;PMS5003;64554;43.452;4.934;2023-04-03T03:05:37;2.00;0.50;0.00
69349;PMS5003;64554;43.452;4.934;2023-04-03T03:08:04;2.00;1.00;0.00
69349;PMS5003;64554;43.452;4.934;2023-04-03T03:10:30;1.00;1.00;0.00
69349;PMS5003;64554;43.452;4.934;2023-04-03T03:12:57;0.75;0.75;0.00
69349;PMS5003;64554;43.452;4.934;2023-04-03T03:15:23;0.00;0.00;0.00
69349;PMS5003;64554;43.452;4.934;2023-04-03T03:17:50;0.40;0.40;0.00
69349;PMS5003;64554;43.452;4.934;2023-04-03T03:20:17;0.00;0.00;0.00
69349;PMS5003;64554;43.452;4.934;2023-04-03T03:22:43;1.00;1.00;0.00
69349;PMS5003;64554;43.452;4.934;2023-04-03T03:25:10;1.00;1.00;0.40
69349;PMS5003;64554;43.452;4.934;2023-04-03T03:27:37;1.00;1.00;0.00
69349;PMS5003;64554;43.452;4.934;2023-04-03T03:30:03;0.00;0.00;0.00
69349;PMS5003;64554;43.452;4.934;2023-04-03T03:32:30;0.00;0.00;0.00
69349;PMS5003;64554;43.452;4.934;2023-04-03T03:34:57;1.00;1.00;0.00
69349;PMS5003;64554;43.452;4.934;2023-04-03T03:37:23;0.75;0.75;0.00
69349;PMS5003;64554;43.452;4.934;2023-04-03T03:39:50;0.00;0.00;0.00
69349;PMS5003;64554;43.452;4.934;2023-04-03T03:42:16;0.00;0.00;0.00
69349;PMS5003;64554;43.452;4.934;2023-04-03T03:44:43;0.00;0.00;0.00
69349;PMS5003;64554;43.452;4.934;2023-04-03T03:47:09;1.00;1.00;1.00
69349;PMS5003;64554;43.452;4.934;2023-04-03T03:49:36;0.20;0.20;0.00
69349;PMS5003;64554;43.452;4.934;2023-04-03T03:52:03;0.80;0.80;0.20
69349;PMS5003;64554;43.452;4.934;2023-04-03T03:54:30;1.00;1.00;0.00
69349;PMS5003;64554;43.452;4.934;2023-04-03T03:56:56;2.00;2.00;0.00
69349;PMS5003;64554;43.452;4.934;2023-04-03T03:59:23;1.00;1.00;0.00
69349;PMS5003;64554;43.452;4.934;2023-04-03T04:01:49;0.00;0.00;0.00
69349;PMS5003;64554;43.452;4.934;2023-04-03T04:04:16;1.00;1.00;0.00
69349;PMS5003;64554;43.452;4.934;2023-04-03T04:06:42;0.00;0.00;0.00
69349;PMS5003;64554;43.452;4.934;2023-04-03T04:09:09;0.80;0.80;0.00
69349;PMS5003;64554;43.452;4.934;2023-04-03T04:11:35;3.20;1.80;1.00
69349;PMS5003;64554;43.452;4.934;2023-04-03T04:14:02;0.80;0.80;0.80
69349;PMS5003;64554;43.452;4.934;2023-04-03T04:16:28;1.00;1.00;0.00
69349;PMS5003;64554;43.452;4.934;2023-04-03T04:18:55;1.00;1.00;0.60
69349;PMS5003;64554;43.452;4.934;2023-04-03T04:21:22;1.00;1.00;0.00
69349;PMS5003;64554;43.452;4.934;2023-04-03T04:23:49;1.00;1.00;0.00
69349;PMS5003;64554;43.452;4.934;2023-04-03T04:26:15;2.00;2.00;1.00
69349;PMS5003;64554;43.452;4.934;2023-04-03T04:28:41;1.00;1.00;0.25
69349;PMS5003;64554;43.452;4.934;2023-04-03T04:31:08;1.00;1.00;0.80
69349;PMS5003;64554;43.452;4.934;2023-04-03T04:33:35;1.00;1.00;0.00
69349;PMS5003;64554;43.452;4.934;2023-04-03T04:36:02;1.00;1.00;1.00
69349;PMS5003;64554;43.452;4.934;2023-04-03T04:38:28;2.00;2.00;1.00
69349;PMS5003;64554;43.452;4.934;2023-04-03T04:40:55;1.00;1.00;1.00
69349;PMS5003;64554;43.452;4.934;2023-04-03T04:43:24;1.75;1.75;1.00
69349;PMS5003;64554;43.452;4.934;2023-04-03T04:46:01;0.00;0.00;0.00
69349;PMS5003;64554;43.452;4.934;2023-04-03T04:48:28;1.20;1.20;1.20
69349;PMS5003;64554;43.452;4.934;2023-04-03T04:50:57;2.00;2.00;1.00
69349;PMS5003;64554;43.452;4.934;2023-04-03T04:53:24;1.00;1.00;1.00
69349;PMS5003;64554;43.452;4.934;2023-04-03T04:55:51;1.00;1.00;1.00
69349;PMS5003;64554;43.452;4.934;2023-04-03T04:58:18;1.00;1.00;1.00
69349;PMS5003;64554;43.452;4.934;2023-04-03T05:00:45;2.00;2.00;1.00
69349;PMS5003;64554;43.452;4.934;2023-04-03T05:03:11;2.00;2.00;1.00
69349;PMS5003;64554;43.452;4.934;2023-04-03T05:05:38;1.50;1.50;1.00
69349;PMS5003;64554;43.452;4.934;2023-04-03T05:08:05;1.00;1.00;1.00
69349;PMS5003;64554;43.452;4.934;2023-04-03T05:10:32;3.00;3.00;2.00
69349;PMS5003;64554;43.452;4.934;2023-04-03T05:12:58;1.80;1.80;1.00
69349;PMS5003;64554;43.452;4.934;2023-04-03T05:15:25;2.20;2.20;2.00
69349;PMS5003;64554;43.452;4.934;2023-04-03T05:17:51;1.00;1.00;1.00
69349;PMS5003;64554;43.452;4.934;2023-04-03T05:20:18;2.00;2.00;1.40
69349;PMS5003;64554;43.452;4.934;2023-04-03T05:22:44;3.00;3.00;1.25
69349;PMS5003;64554;43.452;4.934;2023-04-03T05:25:11;2.00;2.00;1.00
69349;PMS5003;64554;43.452;4.934;2023-04-03T05:27:37;4.00;3.00;2.00
69349;PMS5003;64554;43.452;4.934;2023-04-03T05:30:04;2.60;2.60;2.40
69349;PMS5003;64554;43.452;4.934;2023-04-03T05:32:34;2.20;1.20;1.00
69349;PMS5003;64554;43.452;4.934;2023-04-03T05:35:00;3.00;2.00;2.00
69349;PMS5003;64554;43.452;4.934;2023-04-03T05:37:27;4.00;2.00;1.00
69349;PMS5003;64554;43.452;4.934;2023-04-03T05:39:54;3.00;3.00;2.00
69349;PMS5003;64554;43.452;4.934;2023-04-03T05:42:20;3.00;3.00;2.00
69349;PMS5003;64554;43.452;4.934;2023-04-03T05:44:47;1.00;1.00;1.00
69349;PMS5003;64554;43.452;4.934;2023-04-03T05:47:15;1.00;1.00;1.00
69349;PMS5003;64554;43.452;4.934;2023-04-03T05:49:42;3.00;3.00;2.00
69349;PMS5003;64554;43.452;4.934;2023-04-03T05:52:20;2.00;2.00;2.00
69349;PMS5003;64554;43.452;4.934;2023-04-03T05:54:48;2.75;2.75;1.50
69349;PMS5003;64554;43.452;4.934;2023-04-03T05:57:15;2.40;2.20;1.00
69349;PMS5003;64554;43.452;4.934;2023-04-03T05:59:43;0.00;0.00;0.00
69349;PMS5003;64554;43.452;4.934;2023-04-03T06:02:11;3.00;3.00;2.00
69349;PMS5003;64554;43.452;4.934;2023-04-03T06:04:38;2.20;2.20;1.00
69349;PMS5003;64554;43.452;4.934;2023-04-03T06:07:05;2.00;2.00;2.00
69349;PMS5003;64554;43.452;4.934;2023-04-03T06:09:33;2.00;2.00;1.40
69349;PMS5003;64554;43.452;4.934;2023-04-03T06:11:59;3.00;1.00;1.00
69349;PMS5003;64554;43.452;4.934;2023-04-03T06:14:26;0.40;0.40;0.40
69349;PMS5003;64554;43.452;4.934;2023-04-03T06:16:53;2.00;2.00;1.00
69349;PMS5003;64554;43.452;4.934;2023-04-03T06:19:20;1.25;1.25;0.25
69349;PMS5003;64554;43.452;4.934;2023-04-03T06:21:47;1.00;1.00;1.00
69349;PMS5003;64554;43.452;4.934;2023-04-03T06:24:14;1.00;1.00;1.00
69349;PMS5003;64554;43.452;4.934;2023-04-03T06:26:41;2.00;2.00;1.00
69349;PMS5003;64554;43.452;4.934;2023-04-03T06:29:08;0.25;0.25;0.00
69349;PMS5003;64554;43.452;4.934;2023-04-03T06:31:35;1.40;1.40;1.00
69349;PMS5003;64554;43.452;4.934;2023-04-03T06:34:03;1.60;1.60;0.60
69349;PMS5003;64554;43.452;4.934;2023-04-03T06:36:31;1.25;0.25;0.25
69349;PMS5003;64554;43.452;4.934;2023-04-03T06:38:58;0.60;0.60;0.40
69349;PMS5003;64554;43.452;4.934;2023-04-03T06:41:24;2.80;2.80;0.00
69349;PMS5003;64554;43.452;4.934;2023-04-03T06:43:52;1.60;1.00;1.00
69349;PMS5003;64554;43.452;4.934;2023-04-03T06:46:20;2.00;2.00;1.00
69349;PMS5003;64554;43.452;4.934;2023-04-03T06:48:47;0.00;0.00;0.00
69349;PMS5003;64554;43.452;4.934;2023-04-03T06:51:27;1.00;1.00;1.00
69349;PMS5003;64554;43.452;4.934;2023-04-03T06:53:55;2.60;1.00;1.00
69349;PMS5003;64554;43.452;4.934;2023-04-03T06:56:22;2.00;2.00;1.00
69349;PMS5003;64554;43.452;4.934;2023-04-03T06:58:49;1.20;1.20;0.40
69349;PMS5003;64554;43.452;4.934;2023-04-03T07:01:17;0.60;0.60;0.00
69349;PMS5003;64554;43.452;4.934;2023-04-03T07:03:46;1.00;1.00;1.00
69349;PMS5003;64554;43.452;4.934;2023-04-03T07:06:12;2.00;1.00;0.00
69349;PMS5003;64554;43.452;4.934;2023-04-03T07:08:39;3.00;3.00;1.00
69349;PMS5003;64554;43.452;4.934;2023-04-03T07:11:06;2.75;1.25;0.50
69349;PMS5003;64554;43.452;4.934;2023-04-03T07:13:38;2.00;2.00;1.00
69349;PMS5003;64554;43.452;4.934;2023-04-03T07:16:05;47.00;22.00;4.00
69349;PMS5003;64554;43.452;4.934;2023-04-03T07:18:33;8.80;6.00;2.00
69349;PMS5003;64554;43.452;4.934;2023-04-03T07:20:59;7.80;7.60;1.20
69349;PMS5003;64554;43.452;4.934;2023-04-03T07:23:27;1.40;1.40;0.40
69349;PMS5003;64554;43.452;4.934;2023-04-03T07:25:53;0.40;0.40;0.00
69349;PMS5003;64554;43.452;4.934;2023-04-03T07:28:20;0.40;0.00;0.00
69349;PMS5003;64554;43.452;4.934;2023-04-03T07:30:50;1.00;1.00;0.00
69349;PMS5003;64554;43.452;4.934;2023-04-03T07:33:17;1.00;1.00;1.00
69349;PMS5003;64554;43.452;4.934;2023-04-03T07:35:44;1.50;0.00;0.00
69349;PMS5003;64554;43.452;4.934;2023-04-03T07:38:11;0.00;0.00;0.00
69349;PMS5003;64554;43.452;4.934;2023-04-03T07:40:38;0.00;0.00;0.00
69349;PMS5003;64554;43.452;4.934;2023-04-03T07:43:05;1.60;1.60;0.60
69349;PMS5003;64554;43.452;4.934;2023-04-03T07:45:34;3.00;1.50;1.00
69349;PMS5003;64554;43.452;4.934;2023-04-03T07:48:02;2.00;2.00;0.00
69349;PMS5003;64554;43.452;4.934;2023-04-03T07:50:29;2.00;1.00;0.00
69349;PMS5003;64554;43.452;4.934;2023-04-03T07:52:57;0.00;0.00;0.00
69349;PMS5003;64554;43.452;4.934;2023-04-03T07:55:24;1.25;0.25;0.00
69349;PMS5003;64554;43.452;4.934;2023-04-03T07:57:51;0.80;0.80;0.40
69349;PMS5003;64554;43.452;4.934;2023-04-03T08:00:18;1.00;1.00;0.40
69349;PMS5003;64554;43.452;4.934;2023-04-03T08:02:45;1.00;1.00;0.00
69349;PMS5003;64554;43.452;4.934;2023-04-03T08:05:18;0.40;0.40;0.00
69349;PMS5003;64554;43.452;4.934;2023-04-03T08:07:46;1.00;1.00;0.00
69349;PMS5003;64554;43.452;4.934;2023-04-03T08:10:13;2.00;2.00;0.80
69349;PMS5003;64554;43.452;4.934;2023-04-03T08:12:40;1.00;0.50;0.00
69349;PMS5003;64554;43.452;4.934;2023-04-03T08:15:07;1.00;1.00;0.00
69349;PMS5003;64554;43.452;4.934;2023-04-03T08:17:34;1.00;1.00;1.00
69349;PMS5003;64554;43.452;4.934;2023-04-03T08:20:02;1.60;1.60;0.60
69349;PMS5003;64554;43.452;4.934;2023-04-03T08:22:29;1.50;1.50;1.00
69349;PMS5003;64554;43.452;4.934;2023-04-03T08:24:55;0.00;0.00;0.00
69349;PMS5003;64554;43.452;4.934;2023-04-03T08:27:25;0.00;0.00;0.00
69349;PMS5003;64554;43.452;4.934;2023-04-03T08:29:53;0.50;0.50;0.00
69349;PMS5003;64554;43.452;4.934;2023-04-03T08:32:19;0.00;0.00;0.00
69349;PMS5003;64554;43.452;4.934;2023-04-03T08:34:46;3.40;2.00;1.00
69349;PMS5003;64554;43.452;4.934;2023-04-03T08:37:12;0.00;0.00;0.00
69349;PMS5003;64554;43.452;4.934;2023-04-03T08:39:39;0.50;0.50;0.00
69349;PMS5003;64554;43.452;4.934;2023-04-03T08:42:10;0.00;0.00;0.00
69349;PMS5003;64554;43.452;4.934;2023-04-03T08:47:24;0.50;0.50;0.00
69349;PMS5003;64554;43.452;4.934;2023-04-03T08:49:57;0.40;0.40;0.00
69349;PMS5003;64554;43.452;4.934;2023-04-03T08:57:47;0.00;0.00;0.00
69349;PMS5003;64554;43.452;4.934;2023-04-03T09:00:19;0.00;0.00;0.00
69349;PMS5003;64554;43.452;4.934;2023-04-03T09:02:47;0.00;0.00;0.00
69349;PMS5003;64554;43.452;4.934;2023-04-03T09:05:16;0.00;0.00;0.00
69349;PMS5003;64554;43.452;4.934;2023-04-03T09:07:44;0.60;0.60;0.60
69349;PMS5003;64554;43.452;4.934;2023-04-03T09:10:15;0.00;0.00;0.00
69349;PMS5003;64554;43.452;4.934;2023-04-03T09:12:42;0.00;0.00;0.00
69349;PMS5003;64554;43.452;4.934;2023-04-03T09:15:18;0.00;0.00;0.00
69349;PMS5003;64554;43.452;4.934;2023-04-03T09:25:53;0.00;0.00;0.00
69349;PMS5003;64554;43.452;4.934;2023-04-03T09:28:22;1.00;1.00;0.00
69349;PMS5003;64554;43.452;4.934;2023-04-03T09:30:49;0.00;0.00;0.00
69349;PMS5003;64554;43.452;4.934;2023-04-03T09:33:16;1.00;1.00;0.00
69349;PMS5003;64554;43.452;4.934;2023-04-03T09:35:43;1.00;1.00;0.00
69349;PMS5003;64554;43.452;4.934;2023-04-03T09:38:15;0.00;0.00;0.00
69349;PMS5003;64554;43.452;4.934;2023-04-03T09:46:30;1.00;1.00;0.50
69349;PMS5003;64554;43.452;4.934;2023-04-03T09:48:58;0.40;0.40;0.20
69349;PMS5003;64554;43.452;4.934;2023-04-03T09:51:34;0.00;0.00;0.00
69349;PMS5003;64554;43.452;4.934;2023-04-03T09:54:01;0.00;0.00;0.00
69349;PMS5003;64554;43.452;4.934;2023-04-03T09:56:51;1.00;1.00;1.00
69349;PMS5003;64554;43.452;4.934;2023-04-03T09:59:19;1.00;1.00;0.60
69349;PMS5003;64554;43.452;4.934;2023-04-03T10:02:18;1.00;1.00;0.00
69349;PMS5003;64554;43.452;4.934;2023-04-03T10:04:47;1.00;1.00;0.00
69349;PMS5003;64554;43.452;4.934;2023-04-03T10:07:34;1.00;1.00;1.00
69349;PMS5003;64554;43.452;4.934;2023-04-03T10:10:15;0.60;0.60;0.60
69349;PMS5003;64554;43.452;4.934;2023-04-03T10:12:43;1.00;1.00;0.00
69349;PMS5003;64554;43.452;4.934;2023-04-03T10:15:13;1.00;1.00;0.20
69349;PMS5003;64554;43.452;4.934;2023-04-03T10:25:12;0.00;0.00;0.00
69349;PMS5003;64554;43.452;4.934;2023-04-03T10:43:09;0.00;0.00;0.00
69349;PMS5003;64554;43.452;4.934;2023-04-03T10:46:00;1.00;1.00;0.40
69349;PMS5003;64554;43.452;4.934;2023-04-03T10:48:31;1.00;1.00;0.00
69349;PMS5003;64554;43.452;4.934;2023-04-03T10:56:03;1.75;0.25;0.00
69349;PMS5003;64554;43.452;4.934;2023-04-03T10:58:39;2.00;1.00;1.00
69349;PMS5003;64554;43.452;4.934;2023-04-03T11:01:11;0.00;0.00;0.00
69349;PMS5003;64554;43.452;4.934;2023-04-03T11:03:43;1.00;1.00;1.00
69349;PMS5003;64554;43.452;4.934;2023-04-03T11:06:12;0.60;0.60;0.00
69349;PMS5003;64554;43.452;4.934;2023-04-03T11:08:44;0.60;0.60;0.00
69349;PMS5003;64554;43.452;4.934;2023-04-03T11:11:13;1.00;1.00;1.00
69349;PMS5003;64554;43.452;4.934;2023-04-03T11:13:48;2.00;0.00;0.00
69349;PMS5003;64554;43.452;4.934;2023-04-03T11:16:23;1.00;1.00;0.40
69349;PMS5003;64554;43.452;4.934;2023-04-03T11:18:56;1.00;1.00;0.20
69349;PMS5003;64554;43.452;4.934;2023-04-03T11:21:27;0.00;0.00;0.00
69349;PMS5003;64554;43.452;4.934;2023-04-03T11:23:56;1.50;0.00;0.00
69349;PMS5003;64554;43.452;4.934;2023-04-03T11:26:26;0.50;0.50;0.00
69349;PMS5003;64554;43.452;4.934;2023-04-03T11:29:01;3.00;1.33;1.00
69349;PMS5003;64554;43.452;4.934;2023-04-03T11:34:08;0.60;0.60;0.60
69349;PMS5003;64554;43.452;4.934;2023-04-03T11:36:49;1.00;1.00;0.00
69349;PMS5003;64554;43.452;4.934;2023-04-03T11:41:46;1.00;1.00;1.00
69349;PMS5003;64554;43.452;4.934;2023-04-03T11:44:35;0.80;0.80;0.80
69349;PMS5003;64554;43.452;4.934;2023-04-03T11:47:00;1.00;1.00;0.00
69349;PMS5003;64554;43.452;4.934;2023-04-03T11:52:12;1.00;1.00;1.00
69349;PMS5003;64554;43.452;4.934;2023-04-03T11:54:43;3.00;2.00;1.00
69349;PMS5003;64554;43.452;4.934;2023-04-03T11:59:56;2.00;2.00;1.00
69349;PMS5003;64554;43.452;4.934;2023-04-03T12:02:36;2.40;1.00;0.40
69349;PMS5003;64554;43.452;4.934;2023-04-03T12:05:26;3.00;3.00;2.00
69349;PMS5003;64554;43.452;4.934;2023-04-03T12:10:39;2.00;2.00;2.00
69349;PMS5003;64554;43.452;4.934;2023-04-03T12:13:15;3.00;2.00;2.00
69349;PMS5003;64554;43.452;4.934;2023-04-03T12:15:50;2.00;1.40;1.00
69349;PMS5003;64554;43.452;4.934;2023-04-03T12:21:05;3.00;1.00;0.60
69349;PMS5003;64554;43.452;4.934;2023-04-03T12:26:20;3.00;3.00;2.00
69349;PMS5003;64554;43.452;4.934;2023-04-03T12:28:48;3.80;3.00;1.00
69349;PMS5003;64554;43.452;4.934;2023-04-03T12:31:16;3.00;2.00;1.00
69349;PMS5003;64554;43.452;4.934;2023-04-03T12:36:15;1.40;1.40;0.40
69349;PMS5003;64554;43.452;4.934;2023-04-03T12:38:55;2.00;1.00;1.00
69349;PMS5003;64554;43.452;4.934;2023-04-03T12:41:30;3.50;3.50;2.50
69349;PMS5003;64554;43.452;4.934;2023-04-03T12:46:37;3.00;3.00;2.00
69349;PMS5003;64554;43.452;4.934;2023-04-03T12:49:30;6.20;4.80;1.00
69349;PMS5003;64554;43.452;4.934;2023-04-03T12:51:52;2.00;1.80;1.80
69349;PMS5003;64554;43.452;4.934;2023-04-03T12:54:21;2.80;2.80;1.20
69349;PMS5003;64554;43.452;4.934;2023-04-03T12:56:49;3.00;2.00;1.00
69349;PMS5003;64554;43.452;4.934;2023-04-03T12:59:20;3.00;2.00;2.00
69349;PMS5003;64554;43.452;4.934;2023-04-03T13:02:00;2.40;2.40;1.00
69349;PMS5003;64554;43.452;4.934;2023-04-03T13:04:27;1.00;1.00;1.00
69349;PMS5003;64554;43.452;4.934;2023-04-03T13:06:55;3.00;3.00;2.00
69349;PMS5003;64554;43.452;4.934;2023-04-03T13:11:48;3.00;3.00;2.00
69349;PMS5003;64554;43.452;4.934;2023-04-03T13:14:20;2.00;2.00;2.00
69349;PMS5003;64554;43.452;4.934;2023-04-03T13:19:22;2.50;2.50;2.00
69349;PMS5003;64554;43.452;4.934;2023-04-03T13:21:49;3.00;3.00;1.60
69349;PMS5003;64554;43.452;4.934;2023-04-03T13:24:17;3.60;2.60;1.60
69349;PMS5003;64554;43.452;4.934;2023-04-03T13:26:44;4.80;3.00;2.00
69349;PMS5003;64554;43.452;4.934;2023-04-03T13:29:19;2.00;2.00;1.00
69349;PMS5003;64554;43.452;4.934;2023-04-03T13:31:56;6.00;3.00;2.00
69349;PMS5003;64554;43.452;4.934;2023-04-03T13:34:25;2.00;2.00;2.00
69349;PMS5003;64554;43.452;4.934;2023-04-03T13:39:24;2.00;2.00;1.50
69349;PMS5003;64554;43.452;4.934;2023-04-03T13:41:53;3.00;3.00;2.00
69349;PMS5003;64554;43.452;4.934;2023-04-03T13:46:50;2.00;2.00;1.00
69349;PMS5003;64554;43.452;4.934;2023-04-03T13:49:18;3.00;3.00;2.00
69349;PMS5003;64554;43.452;4.934;2023-04-03T13:51:45;3.25;3.25;1.75
69349;PMS5003;64554;43.452;4.934;2023-04-03T13:54:33;3.50;2.50;1.00
69349;PMS5003;64554;43.452;4.934;2023-04-03T13:57:01;4.00;4.00;1.00
69349;PMS5003;64554;43.452;4.934;2023-04-03T13:59:31;4.50;3.50;2.50
69349;PMS5003;64554;43.452;4.934;2023-04-03T14:04:26;3.80;3.80;2.00
69349;PMS5003;64554;43.452;4.934;2023-04-03T14:06:53;3.00;3.00;2.00
69349;PMS5003;64554;43.452;4.934;2023-04-03T14:09:21;4.00;3.00;2.60
69349;PMS5003;64554;43.452;4.934;2023-04-03T14:11:49;4.20;4.20;2.60
69349;PMS5003;64554;43.452;4.934;2023-04-03T14:14:21;4.75;4.75;3.00
69349;PMS5003;64554;43.452;4.934;2023-04-03T14:16:51;4.60;3.80;2.80
69349;PMS5003;64554;43.452;4.934;2023-04-03T14:19:20;5.00;4.00;3.00
69349;PMS5003;64554;43.452;4.934;2023-04-03T14:21:49;4.20;3.00;3.00
69349;PMS5003;64554;43.452;4.934;2023-04-03T14:24:16;3.80;3.60;2.20
69349;PMS5003;64554;43.452;4.934;2023-04-03T14:26:43;5.40;4.00;2.80
69349;PMS5003;64554;43.452;4.934;2023-04-03T14:29:10;2.60;2.60;1.60
69349;PMS5003;64554;43.452;4.934;2023-04-03T14:31:37;4.00;3.40;2.40
69349;PMS5003;64554;43.452;4.934;2023-04-03T14:34:04;4.00;4.00;2.50
69349;PMS5003;64554;43.452;4.934;2023-04-03T14:36:31;6.00;4.50;3.00
69349;PMS5003;64554;43.452;4.934;2023-04-03T14:38:59;5.00;5.00;4.00
69349;PMS5003;64554;43.452;4.934;2023-04-03T14:41:27;4.75;4.75;2.75
69349;PMS5003;64554;43.452;4.934;2023-04-03T14:43:53;4.00;3.25;2.00
69349;PMS5003;64554;43.452;4.934;2023-04-03T14:46:42;2.60;2.60;1.60
69349;PMS5003;64554;43.452;4.934;2023-04-03T14:49:22;4.00;4.00;2.00
69349;PMS5003;64554;43.452;4.934;2023-04-03T14:51:49;5.40;3.40;2.40
69349;PMS5003;64554;43.452;4.934;2023-04-03T14:54:18;9.75;6.25;4.00
69349;PMS5003;64554;43.452;4.934;2023-04-03T14:56:48;5.00;3.00;3.00
69349;PMS5003;64554;43.452;4.934;2023-04-03T14:59:15;4.00;4.00;3.00
69349;PMS5003;64554;43.452;4.934;2023-04-03T15:01:43;11.75;9.50;4.75
69349;PMS5003;64554;43.452;4.934;2023-04-03T15:04:11;5.40;4.40;2.80
69349;PMS5003;64554;43.452;4.934;2023-04-03T15:06:38;3.00;3.00;2.00
69349;PMS5003;64554;43.452;4.934;2023-04-03T15:09:05;5.00;5.00;3.00
69349;PMS5003;64554;43.452;4.934;2023-04-03T15:11:32;4.00;4.00;3.00
69349;PMS5003;64554;43.452;4.934;2023-04-03T15:13:58;5.00;4.00;3.00
69349;PMS5003;64554;43.452;4.934;2023-04-03T15:16:25;6.00;5.00;4.00
69349;PMS5003;64554;43.452;4.934;2023-04-03T15:18:52;3.60;3.20;2.20
69349;PMS5003;64554;43.452;4.934;2023-04-03T15:21:18;3.50;3.50;3.00
69349;PMS5003;64554;43.452;4.934;2023-04-03T15:23:45;4.00;4.00;3.00
69349;PMS5003;64554;43.452;4.934;2023-04-03T15:26:11;5.00;4.00;2.25
69349;PMS5003;64554;43.452;4.934;2023-04-03T15:28:41;4.50;4.50;3.50
69349;PMS5003;64554;43.452;4.934;2023-04-03T15:31:08;6.40;4.00;3.00
69349;PMS5003;64554;43.452;4.934;2023-04-03T15:33:35;7.60;7.60;3.00
69349;PMS5003;64554;43.452;4.934;2023-04-03T15:36:02;6.00;6.00;4.80
69349;PMS5003;64554;43.452;4.934;2023-04-03T15:38:33;4.00;4.00;2.40
69349;PMS5003;64554;43.452;4.934;2023-04-03T15:40:59;4.00;4.00;3.00
69349;PMS5003;64554;43.452;4.934;2023-04-03T15:43:26;6.80;5.00;3.60
69349;PMS5003;64554;43.452;4.934;2023-04-03T15:45:52;5.60;4.00;3.00
69349;PMS5003;64554;43.452;4.934;2023-04-03T15:48:22;4.60;4.60;3.60
69349;PMS5003;64554;43.452;4.934;2023-04-03T15:50:49;6.25;5.00;3.50
69349;PMS5003;64554;43.452;4.934;2023-04-03T15:53:15;4.80;3.00;2.00
69349;PMS5003;64554;43.452;4.934;2023-04-03T15:55:42;6.00;4.00;3.00
69349;PMS5003;64554;43.452;4.934;2023-04-03T15:58:08;6.00;4.00;2.00
69349;PMS5003;64554;43.452;4.934;2023-04-03T16:00:35;4.00;4.00;3.00
69349;PMS5003;64554;43.452;4.934;2023-04-03T16:03:04;3.60;3.60;2.60